createdAt,value
2023-02-17T00:04:52.236Z,1026.86
2023-02-17T00:09:59.422Z,1026.92
2023-02-17T00:15:06.633Z,1026.83
2023-02-17T00:20:13.814Z,1026.94
2023-02-17T00:25:20.992Z,1026.94
2023-02-17T00:30:28.318Z,1026.88
2023-02-17T00:35:35.462Z,1026.83
2023-02-17T00:40:42.621Z,1026.84
2023-02-17T00:45:49.915Z,1027.02
2023-02-17T00:50:57.106Z,1027.15
2023-02-17T00:56:04.641Z,1027.23
2023-02-17T01:01:11.510Z,1027.22
2023-02-17T01:06:18.655Z,1027.21
2023-02-17T01:11:25.846Z,1027.23
2023-02-17T01:16:33.050Z,1027.18
2023-02-17T01:21:40.266Z,1027.20
2023-02-17T01:26:47.495Z,1027.19
2023-02-17T01:31:54.744Z,1027.10
2023-02-17T01:37:01.871Z,1027.10
2023-02-17T01:42:09.046Z,1027.14
2023-02-17T01:47:16.342Z,1027.02
2023-02-17T01:52:23.484Z,1027.09
2023-02-17T01:57:30.689Z,1027.05
2023-02-17T02:02:38.231Z,1027.04
2023-02-17T02:07:45.198Z,1026.82
2023-02-17T02:12:52.464Z,1026.96
2023-02-17T02:17:59.678Z,1026.83
2023-02-17T02:23:06.949Z,1026.74
2023-02-17T02:28:14.135Z,1026.65
2023-02-17T02:33:21.384Z,1026.73
2023-02-17T02:38:28.597Z,1026.64
2023-02-17T02:43:35.887Z,1026.78
2023-02-17T02:48:43.183Z,1026.71
2023-02-17T02:53:50.368Z,1026.64
2023-02-17T02:58:57.521Z,1026.70
2023-02-17T03:04:05.013Z,1026.65
2023-02-17T03:09:11.955Z,1026.58
2023-02-17T03:14:19.180Z,1026.62
2023-02-17T03:19:26.375Z,1026.65
2023-02-17T03:24:33.542Z,1026.65
2023-02-17T03:29:40.722Z,1026.69
2023-02-17T03:34:47.904Z,1026.73
2023-02-17T03:39:55.123Z,1026.64
2023-02-17T03:45:02.417Z,1026.60
2023-02-17T03:50:09.687Z,1026.60
2023-02-17T03:55:16.842Z,1026.65
2023-02-17T04:00:24.028Z,1026.73
2023-02-17T04:05:31.225Z,1026.71
2023-02-17T04:10:38.412Z,1026.60
2023-02-17T04:15:45.625Z,1026.62
2023-02-17T04:20:52.808Z,1026.65
2023-02-17T04:25:59.935Z,1026.70
2023-02-17T04:31:07.281Z,1026.66
2023-02-17T04:36:14.343Z,1026.73
2023-02-17T04:41:21.528Z,1026.66
2023-02-17T04:46:28.843Z,1026.68
2023-02-17T04:51:35.981Z,1026.59
2023-02-17T04:56:43.145Z,1026.64
2023-02-17T05:01:50.351Z,1026.66
2023-02-17T05:06:57.575Z,1026.78
2023-02-17T05:12:04.776Z,1026.82
2023-02-17T05:17:12.011Z,1026.79
2023-02-17T05:22:19.210Z,1026.82
2023-02-17T05:27:26.357Z,1026.70
2023-02-17T05:32:33.615Z,1026.57
2023-02-17T05:37:40.852Z,1026.61
2023-02-17T05:42:48.014Z,1026.56
2023-02-17T05:47:55.209Z,1026.52
2023-02-17T05:53:02.503Z,1026.63
2023-02-17T05:58:09.632Z,1026.54
2023-02-17T06:03:16.922Z,1026.60
2023-02-17T06:08:24.104Z,1026.63
2023-02-17T06:13:31.349Z,1026.70
2023-02-17T06:18:38.615Z,1026.73
2023-02-17T06:23:45.841Z,1026.74
2023-02-17T06:28:53.060Z,1026.76
2023-02-17T06:34:00.280Z,1026.70
2023-02-17T06:39:07.505Z,1026.72
2023-02-17T06:44:14.631Z,1026.77
2023-02-17T06:49:21.878Z,1026.79
2023-02-17T06:54:29.132Z,1026.90
2023-02-17T06:59:36.280Z,1026.97
2023-02-17T07:04:43.485Z,1026.95
2023-02-17T07:09:50.678Z,1026.98
2023-02-17T07:14:57.897Z,1027.07
2023-02-17T07:20:05.149Z,1027.12
2023-02-17T07:25:12.369Z,1027.14
2023-02-17T07:30:19.603Z,1027.13
2023-02-17T07:35:26.784Z,1027.07
2023-02-17T07:40:34.036Z,1027.17
2023-02-17T07:45:41.241Z,1027.16
2023-02-17T07:50:48.510Z,1027.13
2023-02-17T07:55:55.739Z,1027.22
2023-02-17T08:01:02.934Z,1027.37
2023-02-17T08:06:10.123Z,1027.47
2023-02-17T08:11:17.389Z,1027.46
2023-02-17T08:16:24.580Z,1027.56
2023-02-17T08:21:31.759Z,1027.52
2023-02-17T08:26:39.042Z,1027.63
2023-02-17T08:31:46.335Z,1027.68
2023-02-17T08:36:53.384Z,1027.67
2023-02-17T08:42:00.694Z,1027.69
2023-02-17T08:47:07.912Z,1027.61
2023-02-17T08:52:15.046Z,1027.61
2023-02-17T08:57:22.263Z,1027.69
2023-02-17T09:02:29.406Z,1027.84
2023-02-17T09:07:36.602Z,1027.91
2023-02-17T09:12:43.818Z,1027.90
2023-02-17T09:17:50.937Z,1027.99
2023-02-17T09:22:58.165Z,1027.95
2023-02-17T09:28:05.342Z,1028.02
2023-02-17T09:33:12.509Z,1027.95
2023-02-17T09:38:19.726Z,1027.90
2023-02-17T09:43:26.972Z,1027.97
2023-02-17T09:48:34.095Z,1028.00
2023-02-17T09:53:41.267Z,1027.99
2023-02-17T09:58:48.477Z,1027.98
2023-02-17T10:03:55.656Z,1028.02
2023-02-17T10:09:02.892Z,1028.03
2023-02-17T10:14:10.094Z,1028.07
2023-02-17T10:19:17.201Z,1027.95
2023-02-17T10:24:24.459Z,1027.97
2023-02-17T10:29:31.678Z,1028.00
2023-02-17T10:34:38.719Z,1028.00
2023-02-17T10:39:45.944Z,1028.07
2023-02-17T10:44:53.234Z,1028.22
2023-02-17T10:50:00.395Z,1028.19
2023-02-17T10:55:21.967Z,1028.23
2023-02-17T11:00:14.794Z,1028.20
2023-02-17T11:05:21.933Z,1028.17
2023-02-17T11:10:29.130Z,1028.09
2023-02-17T11:15:51.312Z,1028.12
2023-02-17T11:21:03.364Z,1028.17
2023-02-17T11:26:10.625Z,1027.96
2023-02-17T11:31:17.978Z,1027.85
2023-02-17T11:36:25.141Z,1027.73
2023-02-17T11:41:32.334Z,1027.69
2023-02-17T11:46:39.638Z,1027.56
2023-02-17T11:51:46.824Z,1027.61
2023-02-17T11:56:54.078Z,1027.53
2023-02-17T12:02:01.358Z,1027.51
2023-02-17T12:07:08.542Z,1027.56
2023-02-17T12:12:15.729Z,1027.55
2023-02-17T12:17:22.930Z,1027.42
2023-02-17T12:22:30.148Z,1027.46
2023-02-17T12:27:37.253Z,1027.44
2023-02-17T12:32:44.454Z,1027.41
2023-02-17T12:37:51.638Z,1027.36
2023-02-17T12:42:58.822Z,1027.31
2023-02-17T12:48:06.044Z,1027.26
2023-02-17T12:53:13.204Z,1027.11
2023-02-17T12:58:20.365Z,1027.03
2023-02-17T13:03:27.664Z,1026.99
2023-02-17T13:08:34.851Z,1026.99
2023-02-17T13:13:42.081Z,1027.10
2023-02-17T13:18:50.465Z,1027.03
2023-02-17T13:23:56.485Z,1026.99
2023-02-17T13:29:03.685Z,1026.95
2023-02-17T13:34:10.890Z,1026.82
2023-02-17T13:39:18.060Z,1026.73
2023-02-17T13:44:25.234Z,1026.91
2023-02-17T13:49:32.441Z,1026.90
2023-02-17T13:54:39.606Z,1026.85
2023-02-17T13:59:46.858Z,1026.87
2023-02-17T14:04:55.108Z,1026.86
2023-02-17T14:10:01.245Z,1026.93
2023-02-17T14:15:08.534Z,1026.93
2023-02-17T14:20:15.761Z,1027.04
2023-02-17T14:25:22.901Z,1027.00
2023-02-17T14:30:30.183Z,1027.10
2023-02-17T14:35:37.308Z,1027.13
2023-02-17T14:40:44.748Z,1027.20
2023-02-17T14:45:52.247Z,1027.17
2023-02-17T14:50:59.550Z,1027.11
2023-02-17T14:56:07.108Z,1027.14
2023-02-17T15:01:13.918Z,1027.12
2023-02-17T15:06:21.166Z,1027.14
2023-02-17T15:11:28.393Z,1027.24
2023-02-17T15:16:35.724Z,1027.27
2023-02-17T15:21:42.872Z,1027.25
2023-02-17T15:26:50.316Z,1027.22
2023-02-17T15:31:57.977Z,1027.18
2023-02-17T15:37:05.158Z,1027.24
2023-02-17T15:42:12.463Z,1027.14
2023-02-17T15:47:19.947Z,1027.11
2023-02-17T15:52:27.376Z,1027.05
2023-02-17T15:57:34.549Z,1027.08
2023-02-17T16:02:41.824Z,1027.09
2023-02-17T16:07:49.029Z,1027.05
2023-02-17T16:12:56.482Z,1027.12
2023-02-17T16:18:03.784Z,1027.15
2023-02-17T16:23:11.322Z,1027.05
2023-02-17T16:28:18.737Z,1027.16
2023-02-17T16:33:33.178Z,1027.14
2023-02-17T16:38:38.225Z,1027.15
2023-02-17T16:43:45.754Z,1027.20
2023-02-17T16:48:53.170Z,1027.19
2023-02-17T16:54:00.575Z,1027.22
2023-02-17T16:59:07.681Z,1027.18
2023-02-17T17:04:15.072Z,1027.17
2023-02-17T17:09:23.028Z,1027.11
2023-02-17T17:14:30.141Z,1027.11
2023-02-17T17:19:37.611Z,1027.05
2023-02-17T17:25:00.223Z,1027.03
2023-02-17T17:30:07.668Z,1027.10
2023-02-17T17:35:15.611Z,1027.17
2023-02-17T17:40:23.051Z,1027.25
2023-02-17T17:45:30.641Z,1027.23
2023-02-17T17:50:38.355Z,1027.27
2023-02-17T17:55:45.986Z,1027.34
2023-02-17T18:00:53.680Z,1027.36
2023-02-17T18:06:01.306Z,1027.36
2023-02-17T18:11:08.942Z,1027.45
2023-02-17T18:16:16.658Z,1027.57
2023-02-17T18:21:24.143Z,1027.61
2023-02-17T18:26:31.790Z,1027.67
2023-02-17T18:31:39.538Z,1027.59
2023-02-17T18:36:46.984Z,1027.55
2023-02-17T18:41:54.671Z,1027.55
2023-02-17T18:47:02.226Z,1027.56
2023-02-17T18:52:10.410Z,1027.66
2023-02-17T18:57:17.972Z,1027.54
2023-02-17T19:02:25.409Z,1027.62
2023-02-17T19:07:32.805Z,1027.78
2023-02-17T19:12:40.348Z,1027.74
2023-02-17T19:17:47.890Z,1027.68
2023-02-17T19:22:55.517Z,1027.64
2023-02-17T19:28:03.149Z,1027.60
2023-02-17T19:33:10.832Z,1027.50
2023-02-17T19:38:21.852Z,1027.64
2023-02-17T19:43:31.723Z,1027.64
2023-02-17T19:48:38.993Z,1027.68
2023-02-17T19:53:46.182Z,1027.68
2023-02-17T19:58:53.652Z,1027.59
2023-02-17T20:04:00.927Z,1027.61
2023-02-17T20:09:08.456Z,1027.70
2023-02-17T20:14:16.091Z,1027.72
2023-02-17T20:19:23.673Z,1027.81
2023-02-17T20:24:31.182Z,1027.76
2023-02-17T20:29:38.931Z,1027.78
2023-02-17T20:34:46.240Z,1027.85
2023-02-17T20:39:53.831Z,1028.01
2023-02-17T20:45:01.976Z,1028.06
2023-02-17T20:50:09.468Z,1027.91
2023-02-17T20:55:17.105Z,1027.92
2023-02-17T21:00:24.730Z,1027.74
2023-02-17T21:05:32.316Z,1027.81
2023-02-17T21:10:39.668Z,1027.90
2023-02-17T21:15:47.467Z,1027.72
2023-02-17T21:20:54.848Z,1027.75
2023-02-17T21:26:02.279Z,1027.75
2023-02-17T21:31:09.997Z,1027.84
2023-02-17T21:36:17.317Z,1027.88
2023-02-17T21:41:25.106Z,1027.84
2023-02-17T21:46:32.410Z,1027.85
2023-02-17T21:51:39.554Z,1027.88
2023-02-17T21:56:47.013Z,1027.86
2023-02-17T22:01:54.451Z,1027.82
2023-02-17T22:07:01.644Z,1027.86
2023-02-17T22:12:08.842Z,1027.94
2023-02-17T22:17:16.071Z,1027.91
2023-02-17T22:22:23.254Z,1028.03
2023-02-17T22:27:30.456Z,1027.89
2023-02-17T22:32:37.685Z,1027.92
2023-02-17T22:37:44.810Z,1027.85
2023-02-17T22:42:51.993Z,1027.88
2023-02-17T22:47:59.205Z,1027.93
2023-02-17T22:53:06.366Z,1027.83
2023-02-17T22:58:13.578Z,1027.89
2023-02-17T23:03:20.809Z,1027.91
2023-02-17T23:08:27.932Z,1027.94
2023-02-17T23:13:35.195Z,1028.05
2023-02-17T23:18:42.450Z,1027.99
2023-02-17T23:23:49.579Z,1027.94
2023-02-17T23:28:56.752Z,1028.09
2023-02-17T23:34:03.974Z,1028.00
2023-02-17T23:39:11.137Z,1028.06
2023-02-17T23:44:18.328Z,1028.05
2023-02-17T23:49:25.559Z,1028.07
2023-02-17T23:54:32.671Z,1028.08
2023-02-17T23:59:39.852Z,1028.12
